sensor_id;sensor_type;location;lat;lon;timestamp;temperature;humidity
8591;DHT22;4333;48.322;14.340;2023-03-20T00:01:56;8.80;99.90
8591;DHT22;4333;48.322;14.340;2023-03-20T00:04:22;8.80;99.90
8591;DHT22;4333;48.322;14.340;2023-03-20T00:06:48;8.80;99.90
8591;DHT22;4333;48.322;14.340;2023-03-20T00:09:13;9.00;99.90
8591;DHT22;4333;48.322;14.340;2023-03-20T00:11:49;9.00;99.90
8591;DHT22;4333;48.322;14.340;2023-03-20T00:14:19;8.90;99.90
8591;DHT22;4333;48.322;14.340;2023-03-20T00:16:47;8.90;99.90
8591;DHT22;4333;48.322;14.340;2023-03-20T00:21:44;8.80;99.90
8591;DHT22;4333;48.322;14.340;2023-03-20T00:24:12;8.70;99.90
8591;DHT22;4333;48.322;14.340;2023-03-20T00:26:38;8.70;99.90
8591;DHT22;4333;48.322;14.340;2023-03-20T00:29:06;8.60;99.90
8591;DHT22;4333;48.322;14.340;2023-03-20T00:31:37;8.50;99.90
8591;DHT22;4333;48.322;14.340;2023-03-20T00:34:08;8.60;99.90
8591;DHT22;4333;48.322;14.340;2023-03-20T00:36:34;8.60;99.90
8591;DHT22;4333;48.322;14.340;2023-03-20T00:39:00;8.50;99.90
8591;DHT22;4333;48.322;14.340;2023-03-20T00:46:51;8.40;99.90
8591;DHT22;4333;48.322;14.340;2023-03-20T00:49:21;8.40;99.90
8591;DHT22;4333;48.322;14.340;2023-03-20T00:51:47;8.40;99.90
8591;DHT22;4333;48.322;14.340;2023-03-20T00:54:15;8.30;99.90
8591;DHT22;4333;48.322;14.340;2023-03-20T00:56:56;8.40;99.90
8591;DHT22;4333;48.322;14.340;2023-03-20T00:59:30;8.40;99.90
8591;DHT22;4333;48.322;14.340;2023-03-20T01:01:57;8.30;99.90
8591;DHT22;4333;48.322;14.340;2023-03-20T01:04:24;8.20;99.90
8591;DHT22;4333;48.322;14.340;2023-03-20T01:06:54;8.30;99.90
8591;DHT22;4333;48.322;14.340;2023-03-20T01:09:20;8.40;99.90
8591;DHT22;4333;48.322;14.340;2023-03-20T01:11:46;8.40;99.90
8591;DHT22;4333;48.322;14.340;2023-03-20T01:14:14;8.30;99.90
8591;DHT22;4333;48.322;14.340;2023-03-20T01:16:40;8.20;99.90
8591;DHT22;4333;48.322;14.340;2023-03-20T01:19:08;8.10;99.90
8591;DHT22;4333;48.322;14.340;2023-03-20T01:21:35;8.00;99.90
8591;DHT22;4333;48.322;14.340;2023-03-20T01:24:01;8.00;99.90
8591;DHT22;4333;48.322;14.340;2023-03-20T01:26:36;8.10;99.90
8591;DHT22;4333;48.322;14.340;2023-03-20T01:29:04;8.10;99.90
8591;DHT22;4333;48.322;14.340;2023-03-20T01:31:37;8.20;99.90
8591;DHT22;4333;48.322;14.340;2023-03-20T01:34:03;8.20;99.90
8591;DHT22;4333;48.322;14.340;2023-03-20T01:36:31;8.20;99.90
8591;DHT22;4333;48.322;14.340;2023-03-20T01:38:57;8.20;99.90
8591;DHT22;4333;48.322;14.340;2023-03-20T01:41:25;8.20;99.90
8591;DHT22;4333;48.322;14.340;2023-03-20T01:43:52;8.10;99.90
8591;DHT22;4333;48.322;14.340;2023-03-20T01:46:27;8.10;99.90
8591;DHT22;4333;48.322;14.340;2023-03-20T01:51:46;8.20;99.90
8591;DHT22;4333;48.322;14.340;2023-03-20T02:02:13;8.40;99.90
8591;DHT22;4333;48.322;14.340;2023-03-20T02:04:42;8.30;99.90
8591;DHT22;4333;48.322;14.340;2023-03-20T02:07:10;8.40;99.90
8591;DHT22;4333;48.322;14.340;2023-03-20T02:09:37;8.30;99.90
8591;DHT22;4333;48.322;14.340;2023-03-20T02:12:03;8.30;99.90
8591;DHT22;4333;48.322;14.340;2023-03-20T02:14:31;8.30;99.90
8591;DHT22;4333;48.322;14.340;2023-03-20T02:16:59;8.20;99.90
8591;DHT22;4333;48.322;14.340;2023-03-20T02:19:30;8.20;99.90
8591;DHT22;4333;48.322;14.340;2023-03-20T02:46:25;8.20;99.90
8591;DHT22;4333;48.322;14.340;2023-03-20T02:54:10;8.00;99.90
8591;DHT22;4333;48.322;14.340;2023-03-20T02:57:15;8.00;99.90
8591;DHT22;4333;48.322;14.340;2023-03-20T02:59:44;7.90;99.90
8591;DHT22;4333;48.322;14.340;2023-03-20T03:02:21;7.90;99.90
8591;DHT22;4333;48.322;14.340;2023-03-20T03:04:54;7.90;99.90
8591;DHT22;4333;48.322;14.340;2023-03-20T03:07:24;7.90;99.90
8591;DHT22;4333;48.322;14.340;2023-03-20T03:10:16;7.90;99.90
8591;DHT22;4333;48.322;14.340;2023-03-20T03:12:45;7.80;99.90
8591;DHT22;4333;48.322;14.340;2023-03-20T03:15:58;7.70;99.90
8591;DHT22;4333;48.322;14.340;2023-03-20T03:18:05;7.50;99.90
8591;DHT22;4333;48.322;14.340;2023-03-20T03:20:35;7.50;99.90
8591;DHT22;4333;48.322;14.340;2023-03-20T03:23:02;7.50;99.90
8591;DHT22;4333;48.322;14.340;2023-03-20T03:25:32;7.50;99.90
8591;DHT22;4333;48.322;14.340;2023-03-20T03:28:20;7.40;99.90
8591;DHT22;4333;48.322;14.340;2023-03-20T03:30:50;7.30;99.90
8591;DHT22;4333;48.322;14.340;2023-03-20T03:33:23;7.30;99.90
8591;DHT22;4333;48.322;14.340;2023-03-20T03:35:52;7.30;99.90
8591;DHT22;4333;48.322;14.340;2023-03-20T03:46:41;7.30;99.90
8591;DHT22;4333;48.322;14.340;2023-03-20T03:49:13;7.30;99.90
8591;DHT22;4333;48.322;14.340;2023-03-20T03:51:42;7.20;99.90
8591;DHT22;4333;48.322;14.340;2023-03-20T03:54:19;7.10;99.90
8591;DHT22;4333;48.322;14.340;2023-03-20T03:56:47;7.10;99.90
8591;DHT22;4333;48.322;14.340;2023-03-20T03:59:29;7.10;99.90
8591;DHT22;4333;48.322;14.340;2023-03-20T04:01:58;7.10;99.90
8591;DHT22;4333;48.322;14.340;2023-03-20T04:04:25;7.00;99.90
8591;DHT22;4333;48.322;14.340;2023-03-20T04:06:51;6.90;99.90
8591;DHT22;4333;48.322;14.340;2023-03-20T04:09:17;6.80;99.90
8591;DHT22;4333;48.322;14.340;2023-03-20T04:11:45;6.70;99.90
8591;DHT22;4333;48.322;14.340;2023-03-20T04:14:13;6.60;99.90
8591;DHT22;4333;48.322;14.340;2023-03-20T04:16:39;6.60;99.90
8591;DHT22;4333;48.322;14.340;2023-03-20T04:19:05;6.60;99.90
8591;DHT22;4333;48.322;14.340;2023-03-20T04:21:31;6.60;99.90
8591;DHT22;4333;48.322;14.340;2023-03-20T04:23:56;6.60;99.90
8591;DHT22;4333;48.322;14.340;2023-03-20T04:26:22;6.50;99.90
8591;DHT22;4333;48.322;14.340;2023-03-20T04:28:49;6.50;99.90
8591;DHT22;4333;48.322;14.340;2023-03-20T04:31:14;6.50;99.90
8591;DHT22;4333;48.322;14.340;2023-03-20T04:33:40;6.30;99.90
8591;DHT22;4333;48.322;14.340;2023-03-20T04:36:06;6.40;99.90
8591;DHT22;4333;48.322;14.340;2023-03-20T04:38:32;6.40;99.90
8591;DHT22;4333;48.322;14.340;2023-03-20T04:40:58;6.40;99.90
8591;DHT22;4333;48.322;14.340;2023-03-20T04:43:24;6.30;99.90
8591;DHT22;4333;48.322;14.340;2023-03-20T04:45:49;6.30;99.90
8591;DHT22;4333;48.322;14.340;2023-03-20T04:48:15;6.20;99.90
8591;DHT22;4333;48.322;14.340;2023-03-20T04:50:41;6.30;99.90
8591;DHT22;4333;48.322;14.340;2023-03-20T04:53:07;6.50;99.90
8591;DHT22;4333;48.322;14.340;2023-03-20T04:55:32;6.30;99.90
8591;DHT22;4333;48.322;14.340;2023-03-20T04:57:58;6.20;99.90
8591;DHT22;4333;48.322;14.340;2023-03-20T05:00:24;6.10;99.90
8591;DHT22;4333;48.322;14.340;2023-03-20T05:02:52;6.10;99.90
8591;DHT22;4333;48.322;14.340;2023-03-20T05:05:18;6.00;99.90
8591;DHT22;4333;48.322;14.340;2023-03-20T05:07:43;5.90;99.90
8591;DHT22;4333;48.322;14.340;2023-03-20T05:10:11;5.90;99.90
8591;DHT22;4333;48.322;14.340;2023-03-20T05:12:37;5.80;99.90
8591;DHT22;4333;48.322;14.340;2023-03-20T05:15:03;5.80;99.90
8591;DHT22;4333;48.322;14.340;2023-03-20T05:17:28;5.80;99.90
8591;DHT22;4333;48.322;14.340;2023-03-20T05:19:54;5.80;99.90
8591;DHT22;4333;48.322;14.340;2023-03-20T05:22:20;5.70;99.90
8591;DHT22;4333;48.322;14.340;2023-03-20T05:24:45;5.80;99.90
8591;DHT22;4333;48.322;14.340;2023-03-20T05:27:11;5.80;99.90
8591;DHT22;4333;48.322;14.340;2023-03-20T05:29:37;5.90;99.90
8591;DHT22;4333;48.322;14.340;2023-03-20T05:32:02;6.00;99.90
8591;DHT22;4333;48.322;14.340;2023-03-20T05:34:28;6.20;99.90
8591;DHT22;4333;48.322;14.340;2023-03-20T05:36:54;6.40;99.90
8591;DHT22;4333;48.322;14.340;2023-03-20T05:39:20;6.80;99.90
8591;DHT22;4333;48.322;14.340;2023-03-20T05:41:46;6.90;99.90
8591;DHT22;4333;48.322;14.340;2023-03-20T05:44:12;6.90;99.90
8591;DHT22;4333;48.322;14.340;2023-03-20T05:46:38;6.90;99.90
8591;DHT22;4333;48.322;14.340;2023-03-20T05:49:04;6.90;99.90
8591;DHT22;4333;48.322;14.340;2023-03-20T05:51:29;7.00;99.90
8591;DHT22;4333;48.322;14.340;2023-03-20T05:53:55;7.10;99.90
8591;DHT22;4333;48.322;14.340;2023-03-20T05:56:21;7.20;99.90
8591;DHT22;4333;48.322;14.340;2023-03-20T05:58:46;7.20;99.90
8591;DHT22;4333;48.322;14.340;2023-03-20T06:01:12;7.20;99.90
8591;DHT22;4333;48.322;14.340;2023-03-20T06:03:40;7.20;99.90
8591;DHT22;4333;48.322;14.340;2023-03-20T06:06:06;7.40;99.90
8591;DHT22;4333;48.322;14.340;2023-03-20T06:08:32;7.50;99.90
8591;DHT22;4333;48.322;14.340;2023-03-20T06:11:01;7.50;99.90
8591;DHT22;4333;48.322;14.340;2023-03-20T06:13:27;7.60;99.90
8591;DHT22;4333;48.322;14.340;2023-03-20T06:15:53;7.70;99.90
8591;DHT22;4333;48.322;14.340;2023-03-20T06:18:19;7.80;99.90
8591;DHT22;4333;48.322;14.340;2023-03-20T06:20:44;7.90;99.90
8591;DHT22;4333;48.322;14.340;2023-03-20T06:23:10;8.00;99.90
8591;DHT22;4333;48.322;14.340;2023-03-20T06:25:36;8.10;99.90
8591;DHT22;4333;48.322;14.340;2023-03-20T06:28:03;8.20;99.90
8591;DHT22;4333;48.322;14.340;2023-03-20T06:30:28;8.40;99.90
8591;DHT22;4333;48.322;14.340;2023-03-20T06:32:54;8.40;99.90
8591;DHT22;4333;48.322;14.340;2023-03-20T06:35:20;8.50;99.90
8591;DHT22;4333;48.322;14.340;2023-03-20T06:37:45;8.50;99.90
8591;DHT22;4333;48.322;14.340;2023-03-20T06:40:11;8.60;99.90
8591;DHT22;4333;48.322;14.340;2023-03-20T06:42:37;8.70;99.90
8591;DHT22;4333;48.322;14.340;2023-03-20T06:45:03;8.80;99.90
8591;DHT22;4333;48.322;14.340;2023-03-20T06:47:29;9.00;99.90
8591;DHT22;4333;48.322;14.340;2023-03-20T06:49:55;9.00;99.90
8591;DHT22;4333;48.322;14.340;2023-03-20T06:52:20;9.10;99.90
8591;DHT22;4333;48.322;14.340;2023-03-20T06:54:47;9.40;99.90
8591;DHT22;4333;48.322;14.340;2023-03-20T06:57:13;9.80;99.90
8591;DHT22;4333;48.322;14.340;2023-03-20T06:59:39;10.80;99.90
8591;DHT22;4333;48.322;14.340;2023-03-20T07:02:05;12.20;96.90
8591;DHT22;4333;48.322;14.340;2023-03-20T07:04:31;13.80;74.00
8591;DHT22;4333;48.322;14.340;2023-03-20T07:06:58;13.90;52.60
8591;DHT22;4333;48.322;14.340;2023-03-20T07:09:23;13.70;52.40
8591;DHT22;4333;48.322;14.340;2023-03-20T07:11:49;13.80;51.40
8591;DHT22;4333;48.322;14.340;2023-03-20T07:14:15;13.70;50.40
8591;DHT22;4333;48.322;14.340;2023-03-20T07:16:41;13.20;52.10
8591;DHT22;4333;48.322;14.340;2023-03-20T07:19:07;12.10;61.20
8591;DHT22;4333;48.322;14.340;2023-03-20T07:21:33;11.50;75.30
8591;DHT22;4333;48.322;14.340;2023-03-20T07:23:59;11.00;87.60
8591;DHT22;4333;48.322;14.340;2023-03-20T07:26:27;10.80;93.30
8591;DHT22;4333;48.322;14.340;2023-03-20T07:28:52;10.80;96.20
8591;DHT22;4333;48.322;14.340;2023-03-20T07:31:23;11.60;91.70
8591;DHT22;4333;48.322;14.340;2023-03-20T07:33:49;12.10;79.40
8591;DHT22;4333;48.322;14.340;2023-03-20T07:36:15;12.30;71.70
8591;DHT22;4333;48.322;14.340;2023-03-20T07:38:40;11.80;77.20
8591;DHT22;4333;48.322;14.340;2023-03-20T07:41:07;11.60;83.90
8591;DHT22;4333;48.322;14.340;2023-03-20T07:43:38;11.40;88.80
8591;DHT22;4333;48.322;14.340;2023-03-20T07:46:06;11.30;90.70
8591;DHT22;4333;48.322;14.340;2023-03-20T07:48:33;11.50;91.80
8591;DHT22;4333;48.322;14.340;2023-03-20T07:50:58;11.70;90.30
8591;DHT22;4333;48.322;14.340;2023-03-20T07:53:24;11.80;86.50
8591;DHT22;4333;48.322;14.340;2023-03-20T07:55:50;11.70;86.40
8591;DHT22;4333;48.322;14.340;2023-03-20T07:58:16;11.80;84.30
8591;DHT22;4333;48.322;14.340;2023-03-20T08:00:42;11.80;80.10
8591;DHT22;4333;48.322;14.340;2023-03-20T08:03:08;11.90;80.60
8591;DHT22;4333;48.322;14.340;2023-03-20T08:05:34;12.30;79.90
8591;DHT22;4333;48.322;14.340;2023-03-20T08:08:00;12.60;67.40
8591;DHT22;4333;48.322;14.340;2023-03-20T08:10:26;12.20;71.60
8591;DHT22;4333;48.322;14.340;2023-03-20T08:12:52;12.40;74.70
8591;DHT22;4333;48.322;14.340;2023-03-20T08:15:17;13.20;68.60
8591;DHT22;4333;48.322;14.340;2023-03-20T08:17:44;13.10;62.10
8591;DHT22;4333;48.322;14.340;2023-03-20T08:20:11;12.80;63.00
8591;DHT22;4333;48.322;14.340;2023-03-20T08:22:37;12.90;67.60
8591;DHT22;4333;48.322;14.340;2023-03-20T08:25:03;13.70;60.20
8591;DHT22;4333;48.322;14.340;2023-03-20T08:27:29;13.80;53.00
8591;DHT22;4333;48.322;14.340;2023-03-20T08:29:55;13.10;56.30
8591;DHT22;4333;48.322;14.340;2023-03-20T08:32:21;12.80;59.80
8591;DHT22;4333;48.322;14.340;2023-03-20T08:34:47;12.60;65.70
8591;DHT22;4333;48.322;14.340;2023-03-20T08:37:12;12.50;64.90
8591;DHT22;4333;48.322;14.340;2023-03-20T08:39:39;12.40;68.00
8591;DHT22;4333;48.322;14.340;2023-03-20T08:42:05;12.20;71.00
8591;DHT22;4333;48.322;14.340;2023-03-20T08:44:31;12.20;71.10
8591;DHT22;4333;48.322;14.340;2023-03-20T08:46:57;12.30;74.00
8591;DHT22;4333;48.322;14.340;2023-03-20T08:49:23;12.40;66.20
8591;DHT22;4333;48.322;14.340;2023-03-20T08:51:48;12.50;67.80
8591;DHT22;4333;48.322;14.340;2023-03-20T08:54:14;12.50;67.00
8591;DHT22;4333;48.322;14.340;2023-03-20T08:56:43;12.40;65.50
8591;DHT22;4333;48.322;14.340;2023-03-20T08:59:09;12.20;70.00
8591;DHT22;4333;48.322;14.340;2023-03-20T09:01:34;12.10;71.90
8591;DHT22;4333;48.322;14.340;2023-03-20T09:04:00;11.90;72.50
8591;DHT22;4333;48.322;14.340;2023-03-20T09:06:26;11.70;78.30
8591;DHT22;4333;48.322;14.340;2023-03-20T09:08:53;11.80;82.20
8591;DHT22;4333;48.322;14.340;2023-03-20T09:11:19;11.90;80.70
8591;DHT22;4333;48.322;14.340;2023-03-20T09:13:45;12.00;80.30
8591;DHT22;4333;48.322;14.340;2023-03-20T09:16:11;12.10;78.50
8591;DHT22;4333;48.322;14.340;2023-03-20T09:18:36;11.80;79.00
8591;DHT22;4333;48.322;14.340;2023-03-20T09:21:02;11.70;83.90
8591;DHT22;4333;48.322;14.340;2023-03-20T09:23:28;11.80;84.00
8591;DHT22;4333;48.322;14.340;2023-03-20T09:25:54;11.90;80.80
8591;DHT22;4333;48.322;14.340;2023-03-20T09:28:19;12.00;82.60
8591;DHT22;4333;48.322;14.340;2023-03-20T09:30:45;12.10;81.10
8591;DHT22;4333;48.322;14.340;2023-03-20T09:33:11;12.30;80.50
8591;DHT22;4333;48.322;14.340;2023-03-20T09:35:38;12.60;78.20
8591;DHT22;4333;48.322;14.340;2023-03-20T09:38:05;12.80;73.30
8591;DHT22;4333;48.322;14.340;2023-03-20T09:40:45;12.80;70.70
8591;DHT22;4333;48.322;14.340;2023-03-20T09:43:25;12.90;70.00
8591;DHT22;4333;48.322;14.340;2023-03-20T09:48:48;12.70;67.20
8591;DHT22;4333;48.322;14.340;2023-03-20T09:54:03;12.50;74.60
8591;DHT22;4333;48.322;14.340;2023-03-20T09:56:31;12.70;73.20
8591;DHT22;4333;48.322;14.340;2023-03-20T09:58:59;13.00;71.90
8591;DHT22;4333;48.322;14.340;2023-03-20T10:04:28;13.30;64.00
8591;DHT22;4333;48.322;14.340;2023-03-20T10:06:54;13.20;59.10
8591;DHT22;4333;48.322;14.340;2023-03-20T10:09:26;13.10;65.20
8591;DHT22;4333;48.322;14.340;2023-03-20T10:22:14;13.10;66.00
8591;DHT22;4333;48.322;14.340;2023-03-20T10:24:48;13.30;66.70
8591;DHT22;4333;48.322;14.340;2023-03-20T10:27:21;13.60;63.70
8591;DHT22;4333;48.322;14.340;2023-03-20T10:35:31;13.40;60.50
8591;DHT22;4333;48.322;14.340;2023-03-20T10:40:35;13.10;66.10
8591;DHT22;4333;48.322;14.340;2023-03-20T10:43:29;13.00;63.80
8591;DHT22;4333;48.322;14.340;2023-03-20T10:46:07;13.00;63.80
8591;DHT22;4333;48.322;14.340;2023-03-20T10:51:17;13.00;65.80
8591;DHT22;4333;48.322;14.340;2023-03-20T10:53:52;13.10;65.20
8591;DHT22;4333;48.322;14.340;2023-03-20T10:56:37;13.00;65.00
8591;DHT22;4333;48.322;14.340;2023-03-20T11:01:49;13.60;60.90
8591;DHT22;4333;48.322;14.340;2023-03-20T11:04:14;13.70;56.10
8591;DHT22;4333;48.322;14.340;2023-03-20T11:09:23;14.00;57.50
8591;DHT22;4333;48.322;14.340;2023-03-20T11:11:57;14.20;54.70
8591;DHT22;4333;48.322;14.340;2023-03-20T11:14:25;14.40;52.00
8591;DHT22;4333;48.322;14.340;2023-03-20T11:16:53;14.40;50.90
8591;DHT22;4333;48.322;14.340;2023-03-20T11:19:21;14.30;52.50
8591;DHT22;4333;48.322;14.340;2023-03-20T11:21:53;14.40;52.50
8591;DHT22;4333;48.322;14.340;2023-03-20T11:24:49;14.40;52.30
8591;DHT22;4333;48.322;14.340;2023-03-20T11:27:24;14.00;50.90
8591;DHT22;4333;48.322;14.340;2023-03-20T11:29:52;13.90;53.50
8591;DHT22;4333;48.322;14.340;2023-03-20T11:34:56;14.00;52.90
8591;DHT22;4333;48.322;14.340;2023-03-20T11:37:25;14.10;51.10
8591;DHT22;4333;48.322;14.340;2023-03-20T11:42:36;14.10;48.60
8591;DHT22;4333;48.322;14.340;2023-03-20T11:45:14;14.20;47.30
8591;DHT22;4333;48.322;14.340;2023-03-20T11:47:40;14.30;47.20
8591;DHT22;4333;48.322;14.340;2023-03-20T11:52:49;14.30;48.80
8591;DHT22;4333;48.322;14.340;2023-03-20T11:55:28;14.60;46.40
8591;DHT22;4333;48.322;14.340;2023-03-20T11:57:57;14.50;44.60
8591;DHT22;4333;48.322;14.340;2023-03-20T12:00:28;14.20;46.20
8591;DHT22;4333;48.322;14.340;2023-03-20T12:02:54;13.70;49.50
8591;DHT22;4333;48.322;14.340;2023-03-20T12:05:37;13.90;50.90
8591;DHT22;4333;48.322;14.340;2023-03-20T12:08:11;14.00;48.80
8591;DHT22;4333;48.322;14.340;2023-03-20T12:10:48;14.20;47.40
8591;DHT22;4333;48.322;14.340;2023-03-20T12:13:15;14.00;48.70
8591;DHT22;4333;48.322;14.340;2023-03-20T12:15:53;13.80;50.00
8591;DHT22;4333;48.322;14.340;2023-03-20T12:18:34;13.70;53.30
8591;DHT22;4333;48.322;14.340;2023-03-20T12:21:11;13.60;53.30
8591;DHT22;4333;48.322;14.340;2023-03-20T12:26:34;13.20;55.70
8591;DHT22;4333;48.322;14.340;2023-03-20T12:29:28;13.20;57.50
8591;DHT22;4333;48.322;14.340;2023-03-20T12:32:00;13.40;58.70
8591;DHT22;4333;48.322;14.340;2023-03-20T12:34:57;13.70;57.80
8591;DHT22;4333;48.322;14.340;2023-03-20T12:37:24;13.60;53.80
8591;DHT22;4333;48.322;14.340;2023-03-20T12:39:53;13.60;55.40
8591;DHT22;4333;48.322;14.340;2023-03-20T12:42:29;13.50;53.50
8591;DHT22;4333;48.322;14.340;2023-03-20T12:45:04;13.60;55.50
8591;DHT22;4333;48.322;14.340;2023-03-20T12:50:44;13.50;52.40
8591;DHT22;4333;48.322;14.340;2023-03-20T12:53:25;13.50;53.40
8591;DHT22;4333;48.322;14.340;2023-03-20T13:01:15;13.30;53.90
8591;DHT22;4333;48.322;14.340;2023-03-20T13:20:54;13.80;54.20
8591;DHT22;4333;48.322;14.340;2023-03-20T13:34:38;14.80;41.70
8591;DHT22;4333;48.322;14.340;2023-03-20T13:37:18;14.60;40.20
8591;DHT22;4333;48.322;14.340;2023-03-20T13:42:36;15.00;38.00
8591;DHT22;4333;48.322;14.340;2023-03-20T13:45:24;15.20;34.30
8591;DHT22;4333;48.322;14.340;2023-03-20T13:47:52;15.30;30.20
8591;DHT22;4333;48.322;14.340;2023-03-20T13:53:18;15.30;26.80
8591;DHT22;4333;48.322;14.340;2023-03-20T13:55:50;15.50;26.20
8591;DHT22;4333;48.322;14.340;2023-03-20T14:01:06;15.50;24.30
8591;DHT22;4333;48.322;14.340;2023-03-20T14:03:43;15.30;24.30
8591;DHT22;4333;48.322;14.340;2023-03-20T14:09:00;15.00;24.50
8591;DHT22;4333;48.322;14.340;2023-03-20T14:11:34;15.30;25.10
8591;DHT22;4333;48.322;14.340;2023-03-20T14:14:10;15.50;22.60
8591;DHT22;4333;48.322;14.340;2023-03-20T14:16:40;15.20;21.80
8591;DHT22;4333;48.322;14.340;2023-03-20T14:21:35;15.40;24.40
8591;DHT22;4333;48.322;14.340;2023-03-20T14:24:05;15.70;23.30
8591;DHT22;4333;48.322;14.340;2023-03-20T14:26:37;15.80;22.50
8591;DHT22;4333;48.322;14.340;2023-03-20T14:31:37;15.80;22.40
8591;DHT22;4333;48.322;14.340;2023-03-20T14:50:41;14.00;35.00
8591;DHT22;4333;48.322;14.340;2023-03-20T14:53:21;13.90;39.10
8591;DHT22;4333;48.322;14.340;2023-03-20T15:01:24;13.70;43.50
8591;DHT22;4333;48.322;14.340;2023-03-20T15:04:08;13.70;44.00
8591;DHT22;4333;48.322;14.340;2023-03-20T15:06:44;13.70;44.80
8591;DHT22;4333;48.322;14.340;2023-03-20T15:09:12;13.70;44.30
8591;DHT22;4333;48.322;14.340;2023-03-20T15:11:39;13.50;45.00
8591;DHT22;4333;48.322;14.340;2023-03-20T15:14:08;13.50;46.90
8591;DHT22;4333;48.322;14.340;2023-03-20T15:16:36;13.50;48.00
8591;DHT22;4333;48.322;14.340;2023-03-20T15:19:07;13.40;51.10
8591;DHT22;4333;48.322;14.340;2023-03-20T15:21:40;13.30;53.20
8591;DHT22;4333;48.322;14.340;2023-03-20T15:24:06;13.30;56.50
8591;DHT22;4333;48.322;14.340;2023-03-20T15:26:33;13.30;58.30
8591;DHT22;4333;48.322;14.340;2023-03-20T15:29:03;13.30;58.10
8591;DHT22;4333;48.322;14.340;2023-03-20T15:31:34;13.40;56.70
8591;DHT22;4333;48.322;14.340;2023-03-20T15:34:05;13.50;52.90
8591;DHT22;4333;48.322;14.340;2023-03-20T15:36:33;13.60;52.20
8591;DHT22;4333;48.322;14.340;2023-03-20T15:39:23;13.70;51.80
8591;DHT22;4333;48.322;14.340;2023-03-20T15:41:58;13.90;47.30
8591;DHT22;4333;48.322;14.340;2023-03-20T15:44:26;14.10;46.70
8591;DHT22;4333;48.322;14.340;2023-03-20T15:49:39;14.20;45.70
8591;DHT22;4333;48.322;14.340;2023-03-20T15:52:35;14.30;46.30
8591;DHT22;4333;48.322;14.340;2023-03-20T15:55:05;14.20;44.90
8591;DHT22;4333;48.322;14.340;2023-03-20T15:57:34;14.10;44.30
8591;DHT22;4333;48.322;14.340;2023-03-20T16:00:02;14.20;43.20
8591;DHT22;4333;48.322;14.340;2023-03-20T16:02:29;14.20;41.20
8591;DHT22;4333;48.322;14.340;2023-03-20T16:04:55;14.20;41.30
8591;DHT22;4333;48.322;14.340;2023-03-20T16:07:25;14.20;38.90
8591;DHT22;4333;48.322;14.340;2023-03-20T16:09:51;14.20;38.20
8591;DHT22;4333;48.322;14.340;2023-03-20T16:12:18;14.30;34.10
8591;DHT22;4333;48.322;14.340;2023-03-20T16:14:45;14.10;32.00
8591;DHT22;4333;48.322;14.340;2023-03-20T16:17:12;14.00;34.10
8591;DHT22;4333;48.322;14.340;2023-03-20T16:19:38;13.90;35.70
8591;DHT22;4333;48.322;14.340;2023-03-20T16:22:24;13.70;37.40
8591;DHT22;4333;48.322;14.340;2023-03-20T16:24:55;13.60;38.30
8591;DHT22;4333;48.322;14.340;2023-03-20T16:27:29;13.60;40.80
8591;DHT22;4333;48.322;14.340;2023-03-20T16:29:55;13.60;42.70
8591;DHT22;4333;48.322;14.340;2023-03-20T16:32:31;13.60;45.00
8591;DHT22;4333;48.322;14.340;2023-03-20T16:34:58;13.50;47.40
8591;DHT22;4333;48.322;14.340;2023-03-20T16:37:29;13.30;49.10
8591;DHT22;4333;48.322;14.340;2023-03-20T16:42:39;13.10;52.60
8591;DHT22;4333;48.322;14.340;2023-03-20T16:45:07;13.00;54.40
8591;DHT22;4333;48.322;14.340;2023-03-20T16:47:39;13.00;54.40
8591;DHT22;4333;48.322;14.340;2023-03-20T16:50:22;12.90;55.20
8591;DHT22;4333;48.322;14.340;2023-03-20T16:52:51;12.90;55.80
8591;DHT22;4333;48.322;14.340;2023-03-20T16:55:26;12.80;56.20
8591;DHT22;4333;48.322;14.340;2023-03-20T16:57:57;12.80;57.40
8591;DHT22;4333;48.322;14.340;2023-03-20T17:00:30;12.60;58.50
8591;DHT22;4333;48.322;14.340;2023-03-20T17:03:13;12.50;60.00
8591;DHT22;4333;48.322;14.340;2023-03-20T17:08:16;12.40;64.50
8591;DHT22;4333;48.322;14.340;2023-03-20T17:10:50;12.30;67.10
8591;DHT22;4333;48.322;14.340;2023-03-20T17:13:17;12.20;69.60
8591;DHT22;4333;48.322;14.340;2023-03-20T17:15:43;12.20;70.40
8591;DHT22;4333;48.322;14.340;2023-03-20T17:18:12;12.10;71.20
8591;DHT22;4333;48.322;14.340;2023-03-20T17:20:38;12.10;71.90
8591;DHT22;4333;48.322;14.340;2023-03-20T17:23:16;11.90;73.50
8591;DHT22;4333;48.322;14.340;2023-03-20T17:25:43;11.90;75.90
8591;DHT22;4333;48.322;14.340;2023-03-20T17:28:16;11.80;76.70
8591;DHT22;4333;48.322;14.340;2023-03-20T17:30:44;11.70;78.80
8591;DHT22;4333;48.322;14.340;2023-03-20T17:33:14;11.60;79.80
8591;DHT22;4333;48.322;14.340;2023-03-20T17:35:41;11.40;83.00
8591;DHT22;4333;48.322;14.340;2023-03-20T17:38:16;11.30;88.00
8591;DHT22;4333;48.322;14.340;2023-03-20T17:40:42;11.10;91.30
8591;DHT22;4333;48.322;14.340;2023-03-20T17:43:10;11.00;92.60
8591;DHT22;4333;48.322;14.340;2023-03-20T17:45:37;11.10;94.20
8591;DHT22;4333;48.322;14.340;2023-03-20T17:48:03;11.00;92.90
8591;DHT22;4333;48.322;14.340;2023-03-20T17:50:29;10.90;94.70
8591;DHT22;4333;48.322;14.340;2023-03-20T17:52:55;10.90;96.30
8591;DHT22;4333;48.322;14.340;2023-03-20T17:55:21;10.80;96.00
8591;DHT22;4333;48.322;14.340;2023-03-20T17:57:49;10.80;95.50
8591;DHT22;4333;48.322;14.340;2023-03-20T18:00:21;10.70;97.30
8591;DHT22;4333;48.322;14.340;2023-03-20T18:02:47;10.60;98.80
8591;DHT22;4333;48.322;14.340;2023-03-20T18:05:13;10.50;99.40
8591;DHT22;4333;48.322;14.340;2023-03-20T18:07:38;10.60;99.40
8591;DHT22;4333;48.322;14.340;2023-03-20T18:10:04;10.60;99.40
8591;DHT22;4333;48.322;14.340;2023-03-20T18:12:31;10.60;96.80
8591;DHT22;4333;48.322;14.340;2023-03-20T18:14:59;10.40;99.90
8591;DHT22;4333;48.322;14.340;2023-03-20T18:17:25;10.30;99.90
8591;DHT22;4333;48.322;14.340;2023-03-20T18:19:52;10.40;99.90
8591;DHT22;4333;48.322;14.340;2023-03-20T18:22:18;10.40;99.90
8591;DHT22;4333;48.322;14.340;2023-03-20T18:24:46;10.40;99.90
8591;DHT22;4333;48.322;14.340;2023-03-20T18:27:11;10.50;99.90
8591;DHT22;4333;48.322;14.340;2023-03-20T18:29:37;10.30;99.90
8591;DHT22;4333;48.322;14.340;2023-03-20T18:32:03;10.30;99.90
8591;DHT22;4333;48.322;14.340;2023-03-20T18:34:28;10.30;99.90
8591;DHT22;4333;48.322;14.340;2023-03-20T18:36:54;10.20;99.90
8591;DHT22;4333;48.322;14.340;2023-03-20T18:39:21;10.10;99.90
8591;DHT22;4333;48.322;14.340;2023-03-20T18:41:47;10.00;99.90
8591;DHT22;4333;48.322;14.340;2023-03-20T18:44:13;10.00;99.90
8591;DHT22;4333;48.322;14.340;2023-03-20T18:46:39;10.00;99.90
8591;DHT22;4333;48.322;14.340;2023-03-20T18:49:06;9.90;99.90
8591;DHT22;4333;48.322;14.340;2023-03-20T18:51:32;9.90;99.90
8591;DHT22;4333;48.322;14.340;2023-03-20T18:53:57;9.70;99.90
8591;DHT22;4333;48.322;14.340;2023-03-20T18:56:25;9.60;99.90
8591;DHT22;4333;48.322;14.340;2023-03-20T18:58:53;9.50;99.90
8591;DHT22;4333;48.322;14.340;2023-03-20T19:01:19;9.40;99.90
8591;DHT22;4333;48.322;14.340;2023-03-20T19:03:46;9.40;99.90
8591;DHT22;4333;48.322;14.340;2023-03-20T19:06:20;9.50;99.90
8591;DHT22;4333;48.322;14.340;2023-03-20T19:08:47;9.50;99.90
8591;DHT22;4333;48.322;14.340;2023-03-20T19:11:13;9.40;99.90